Time;durP1;ratioP1;P1;durP2;ratioP2;P2;SDS_P1;SDS_P2;PMS_P1;PMS_P2;Temp;Humidity;BMP_temperature;BMP_pressure;BME280_temperature;BME280_humidity;BME280_pressure;Samples;Min_cycle;Max_cycle;Signal;HPM_P1;HPM_P2
2022/04/26 03:37:29;;;;;;;3.88;2.55;;;12.10;90.50;;;;;;10486348;28;20064;-57
2022/04/26 03:42:30;;;;;;;5.35;2.72;;;12.10;90.50;;;;;;10490322;28;20491;-57
2022/04/26 03:47:30;;;;;;;3.53;2.65;;;12.10;90.50;;;;;;10489465;28;20033;-57
2022/04/26 03:52:31;;;;;;;5.40;2.60;;;12.10;90.50;;;;;;10490010;28;20047;-57
2022/04/26 03:57:32;;;;;;;7.55;2.80;;;12.00;90.50;;;;;;10473440;28;20120;-56
2022/04/26 04:02:33;;;;;;;3.55;2.20;;;12.10;90.50;;;;;;10489865;28;20132;-57
2022/04/26 04:07:33;;;;;;;5.00;3.05;;;12.00;90.50;;;;;;10487567;28;20045;-57
2022/04/26 04:12:34;;;;;;;3.15;2.30;;;12.00;90.50;;;;;;10489813;28;20429;-57
2022/04/26 04:17:35;;;;;;;4.75;2.58;;;12.00;90.40;;;;;;10491268;28;20513;-58
2022/04/26 04:22:36;;;;;;;5.18;2.60;;;12.00;90.40;;;;;;10487726;28;20510;-57
2022/04/26 04:27:36;;;;;;;5.10;2.60;;;12.00;90.40;;;;;;10488190;28;20029;-58
2022/04/26 04:32:37;;;;;;;5.40;3.20;;;12.00;90.40;;;;;;10488410;28;20032;-57
2022/04/26 04:37:38;;;;;;;4.43;2.45;;;12.00;90.40;;;;;;10489455;28;20021;-57
2022/04/26 04:42:39;;;;;;;5.10;2.55;;;12.00;90.40;;;;;;10488224;28;20479;-58
2022/04/26 04:47:40;;;;;;;6.63;2.85;;;11.90;90.40;;;;;;10487718;28;20031;-58
2022/04/26 04:52:41;;;;;;;5.88;2.78;;;11.90;90.30;;;;;;10479732;28;20111;-57
2022/04/26 04:57:42;;;;;;;4.93;2.55;;;12.00;90.30;;;;;;10486898;28;20146;-57
2022/04/26 05:02:43;;;;;;;5.65;2.53;;;11.90;90.30;;;;;;10487252;28;20044;-57
2022/04/26 05:07:44;;;;;;;7.65;2.70;;;11.90;90.30;;;;;;10486055;28;20426;-57
2022/04/26 05:12:45;;;;;;;4.15;2.70;;;11.90;90.30;;;;;;10487512;28;20028;-57
2022/04/26 05:17:46;;;;;;;6.53;2.47;;;12.00;90.30;;;;;;10487093;28;20051;-57
2022/04/26 05:28:06;;;;;;;4.97;2.42;;;11.90;90.20;;;;;;10487046;28;20028;-56
2022/04/26 05:33:07;;;;;;;5.85;2.50;;;12.00;90.20;;;;;;10486694;28;20044;-57
2022/04/26 05:38:07;;;;;;;5.18;2.47;;;11.90;90.20;;;;;;10487708;28;20390;-56
2022/04/26 05:43:09;;;;;;;3.67;2.55;;;12.00;90.20;;;;;;10486491;28;20127;-56
2022/04/26 05:48:11;;;;;;;6.05;2.30;;;12.00;90.20;;;;;;10477231;28;20025;-55
2022/04/26 05:53:12;;;;;;;5.35;2.40;;;11.90;90.10;;;;;;10486397;28;20315;-57
2022/04/26 05:58:12;;;;;;;4.57;2.47;;;11.90;90.10;;;;;;10483274;28;20173;-57
2022/04/26 06:03:13;;;;;;;5.10;2.60;;;12.00;90.10;;;;;;10481596;28;20040;-57
2022/04/26 06:08:14;;;;;;;4.13;2.63;;;11.90;90.10;;;;;;10482368;28;20052;-57
2022/04/26 06:13:15;;;;;;;3.65;2.40;;;11.90;90.00;;;;;;10488000;28;20029;-57
2022/04/26 06:18:16;;;;;;;5.75;2.17;;;12.00;90.00;;;;;;10486396;28;20454;-57
2022/04/26 06:23:16;;;;;;;6.20;2.58;;;12.00;90.00;;;;;;10489782;28;20319;-58
2022/04/26 06:28:17;;;;;;;4.43;2.40;;;12.00;90.00;;;;;;10490806;28;20048;-56
2022/04/26 06:33:18;;;;;;;5.80;2.42;;;12.10;90.10;;;;;;10492337;28;20110;-60
2022/04/26 06:38:22;;;;;;;6.63;2.60;;;12.00;90.00;;;;;;10490865;28;20116;-56
2022/04/26 06:43:22;;;;;;;5.15;2.78;;;12.00;90.10;;;;;;10490279;28;20056;-57
2022/04/26 06:48:23;;;;;;;5.97;2.70;;;12.00;90.10;;;;;;10489491;28;20036;-60
2022/04/26 06:53:24;;;;;;;5.68;2.35;;;12.10;90.00;;;;;;10489539;28;20028;-60
2022/04/26 06:58:24;;;;;;;5.30;2.38;;;12.10;90.00;;;;;;10489221;28;20397;-58
2022/04/26 07:03:26;;;;;;;4.60;2.13;;;12.10;89.90;;;;;;10488538;28;20047;-58
2022/04/26 07:08:26;;;;;;;3.65;2.22;;;12.20;89.90;;;;;;10487948;28;20033;-60
2022/04/26 07:13:27;;;;;;;3.28;1.90;;;12.20;89.90;;;;;;10488385;28;20487;-58
2022/04/26 07:18:28;;;;;;;6.00;2.50;;;12.20;89.80;;;;;;10489277;28;20083;-59
2022/04/26 07:23:29;;;;;;;4.32;2.30;;;12.30;89.80;;;;;;10487461;28;20486;-59
2022/04/26 07:28:30;;;;;;;2.40;1.92;;;12.20;89.80;;;;;;10489177;28;20024;-58
2022/04/26 07:38:50;;;;;;;4.05;2.20;;;12.30;89.70;;;;;;10490443;28;20681;-58
2022/04/26 07:43:52;;;;;;;5.93;2.10;;;12.40;89.70;;;;;;10489190;28;20031;-60
2022/04/26 07:48:54;;;;;;;2.65;1.90;;;12.40;89.50;;;;;;10488577;28;20029;-58
2022/04/26 07:53:54;;;;;;;5.93;2.35;;;12.50;89.50;;;;;;10474441;28;20494;-59
2022/04/26 07:58:58;;;;;;;3.22;2.22;;;12.50;89.70;;;;;;10487152;28;20023;-59
2022/04/26 08:03:59;;;;;;;5.82;2.25;;;12.50;89.80;;;;;;10487228;28;20057;-60
2022/04/26 08:09:00;;;;;;;5.90;2.08;;;12.50;89.80;;;;;;10486062;28;20060;-58
2022/04/26 08:14:01;;;;;;;3.58;2.10;;;12.50;89.70;;;;;;10486804;28;20116;-59
2022/04/26 08:19:01;;;;;;;3.10;2.08;;;12.60;89.70;;;;;;10483993;28;20019;-60
2022/04/26 08:29:22;;;;;;;4.22;1.95;;;12.60;89.80;;;;;;10486126;28;20037;-57
2022/04/26 08:34:23;;;;;;;3.17;2.03;;;12.60;89.90;;;;;;10485808;28;20081;-59
2022/04/26 08:39:24;;;;;;;3.47;2.00;;;12.60;89.80;;;;;;10486783;28;20478;-58
2022/04/26 08:44:29;;;;;;;3.42;2.40;;;12.60;89.80;;;;;;10484366;28;20025;-58
2022/04/26 08:54:49;;;;;;;4.85;2.35;;;12.70;89.90;;;;;;10486824;28;20039;-58
2022/04/26 08:59:52;;;;;;;3.00;1.98;;;12.70;89.80;;;;;;10486805;28;20090;-60
2022/04/26 09:04:59;;;;;;;2.15;1.83;;;12.80;89.80;;;;;;10486466;28;20575;-60
2022/04/26 09:10:18;;;;;;;4.97;2.33;;;12.80;89.70;;;;;;10490047;28;20539;-59
2022/04/26 09:15:19;;;;;;;4.03;2.08;;;12.90;90.00;;;;;;10486612;28;20032;-58
2022/04/26 09:20:40;;;;;;;6.10;1.90;;;12.90;89.70;;;;;;10485789;28;20036;-59
2022/04/26 09:25:41;;;;;;;5.50;2.05;;;12.90;89.80;;;;;;10485427;28;20521;-59
2022/04/26 09:30:42;;;;;;;3.22;2.03;;;12.90;89.70;;;;;;10486252;28;20060;-59
2022/04/26 09:35:43;;;;;;;3.92;2.22;;;12.90;89.60;;;;;;10487368;28;20302;-59
2022/04/26 09:40:47;;;;;;;3.30;1.95;;;13.00;89.70;;;;;;10486199;28;20049;-59
2022/04/26 09:45:56;;;;;;;2.40;1.65;;;13.00;89.70;;;;;;10490723;28;20517;-59
2022/04/26 09:50:58;;;;;;;4.55;1.67;;;13.00;89.70;;;;;;10494130;28;20048;-59
2022/04/26 09:56:04;;;;;;;3.17;1.85;;;13.00;89.70;;;;;;10493066;28;20033;-60
2022/04/26 10:01:05;;;;;;;2.83;1.92;;;13.00;89.60;;;;;;10493212;28;20778;-58
2022/04/26 10:06:07;;;;;;;3.00;1.98;;;13.10;89.40;;;;;;10493180;28;20078;-59
2022/04/26 10:11:08;;;;;;;5.05;2.63;;;13.20;89.30;;;;;;10491831;28;20499;-56
2022/04/26 10:16:11;;;;;;;2.20;1.85;;;13.30;89.10;;;;;;10492957;28;20027;-60
2022/04/26 10:21:22;;;;;;;2.30;1.55;;;13.30;89.00;;;;;;10490923;28;20024;-59
2022/04/26 10:26:24;;;;;;;3.20;2.05;;;13.30;89.00;;;;;;10492484;28;20427;-59
2022/04/26 10:31:35;;;;;;;3.55;1.85;;;13.30;89.00;;;;;;10492713;28;20048;-60
2022/04/26 10:36:36;;;;;;;2.28;1.70;;;13.40;88.90;;;;;;10492975;28;20032;-58
2022/04/26 10:41:39;;;;;;;2.75;2.05;;;13.50;88.80;;;;;;10492656;28;20499;-57
2022/04/26 10:46:41;;;;;;;2.90;1.90;;;13.50;88.70;;;;;;10492364;28;20041;-59
2022/04/26 10:51:42;;;;;;;2.72;1.73;;;13.50;88.60;;;;;;10490824;28;20872;-59
2022/04/26 10:56:42;;;;;;;2.88;2.00;;;13.60;88.40;;;;;;10487508;28;20032;-59
2022/04/26 11:01:43;;;;;;;2.50;1.95;;;13.70;88.20;;;;;;10485867;28;20127;-58
2022/04/26 11:06:44;;;;;;;2.08;1.50;;;13.70;88.20;;;;;;10489874;28;20056;-60
2022/04/26 11:11:55;;;;;;;4.25;2.10;;;13.80;88.20;;;;;;10489498;28;20135;-59
2022/04/26 11:17:00;;;;;;;2.83;1.88;;;13.80;88.20;;;;;;10471790;28;20028;-58
2022/04/26 11:22:05;;;;;;;3.15;1.95;;;13.80;88.30;;;;;;10480084;28;20036;-58
2022/04/26 11:32:43;;;;;;;2.83;2.03;;;13.90;87.90;;;;;;10488789;28;20414;-60
2022/04/26 11:37:45;;;;;;;3.03;2.00;;;13.90;87.80;;;;;;10488805;28;20456;-59
2022/04/26 11:42:46;;;;;;;3.70;1.70;;;14.00;87.90;;;;;;10487857;28;20433;-60
2022/04/26 11:47:48;;;;;;;3.10;1.70;;;14.00;87.60;;;;;;10487477;28;20028;-58
2022/04/26 11:52:52;;;;;;;2.72;1.70;;;14.20;87.30;;;;;;10486815;28;20495;-59
2022/04/26 11:58:04;;;;;;;3.10;1.80;;;14.30;87.00;;;;;;10486349;28;20024;-60
2022/04/26 12:03:06;;;;;;;5.43;1.98;;;14.30;87.00;;;;;;10485850;28;20064;-59
2022/04/26 12:08:12;;;;;;;3.47;1.90;;;14.30;86.90;;;;;;10484110;28;20076;-60
2022/04/26 12:13:12;;;;;;;2.20;1.70;;;14.40;86.70;;;;;;10479132;28;20138;-59
2022/04/26 12:18:14;;;;;;;3.78;2.13;;;14.40;86.60;;;;;;10489334;28;20024;-60
2022/04/26 12:23:21;;;;;;;2.35;1.60;;;14.60;86.30;;;;;;10483273;28;20044;-59
2022/04/26 12:28:23;;;;;;;3.97;2.08;;;14.70;85.90;;;;;;10478227;28;20550;-57
2022/04/26 12:33:34;;;;;;;3.17;1.83;;;14.70;85.90;;;;;;10484644;28;20036;-57
2022/04/26 12:38:47;;;;;;;2.45;1.60;;;14.70;85.90;;;;;;10485142;28;20057;-57
2022/04/26 12:44:01;;;;;;;2.83;1.65;;;14.70;86.40;;;;;;10483828;28;20043;-58
2022/04/26 12:54:22;;;;;;;4.82;1.80;;;14.70;85.80;;;;;;10482977;28;20640;-57
2022/04/26 12:59:22;;;;;;;3.53;1.50;;;14.90;85.80;;;;;;10478846;28;20040;-57
2022/04/26 13:04:23;;;;;;;2.85;1.80;;;14.90;85.90;;;;;;10485948;28;20051;-56
2022/04/26 13:09:23;;;;;;;4.22;1.90;;;14.80;85.80;;;;;;10482109;28;20028;-56
2022/04/26 13:14:26;;;;;;;2.85;1.90;;;14.80;86.00;;;;;;10486400;28;20125;-57
2022/04/26 13:19:27;;;;;;;6.63;2.30;;;14.80;86.00;;;;;;10485634;28;20479;-56
2022/04/26 13:24:29;;;;;;;2.47;1.88;;;15.00;85.80;;;;;;10484396;28;20122;-56
2022/04/26 13:29:30;;;;;;;2.70;1.80;;;15.10;85.40;;;;;;10467054;28;20071;-56
2022/04/26 13:34:31;;;;;;;2.85;1.77;;;15.00;85.40;;;;;;10478202;28;20068;-56
2022/04/26 13:39:32;;;;;;;4.20;2.15;;;15.10;85.50;;;;;;10486929;28;20507;-57
2022/04/26 13:44:33;;;;;;;4.43;1.80;;;15.20;85.30;;;;;;10485608;28;20426;-56
2022/04/26 13:49:35;;;;;;;5.03;2.00;;;15.30;85.10;;;;;;10485429;28;20494;-57
2022/04/26 13:54:36;;;;;;;2.75;1.70;;;15.30;85.10;;;;;;10485520;28;20107;-58
2022/04/26 13:59:37;;;;;;;2.42;1.83;;;15.30;85.20;;;;;;10484886;28;20036;-57
2022/04/26 14:04:38;;;;;;;2.80;2.00;;;15.20;85.40;;;;;;10484795;28;20052;-58
2022/04/26 14:09:39;;;;;;;3.22;2.35;;;15.20;85.60;;;;;;10482690;28;20020;-57
2022/04/26 14:25:18;;;;;;;4.30;2.05;;;15.70;84.70;;;;;;10483054;28;20045;-60
2022/04/26 14:30:19;;;;;;;4.38;2.00;;;16.00;81.30;;;;;;10486658;28;20103;-60
2022/04/26 14:35:20;;;;;;;3.00;2.10;;;16.20;77.60;;;;;;10492005;28;20097;-59
2022/04/26 14:40:21;;;;;;;5.40;2.42;;;15.70;75.00;;;;;;10487431;28;20509;-59
2022/04/26 14:45:22;;;;;;;4.90;2.17;;;15.10;74.80;;;;;;10491466;28;20035;-59
2022/04/26 14:50:22;;;;;;;4.22;2.10;;;15.10;74.00;;;;;;10491605;28;20023;-59
2022/04/26 14:55:23;;;;;;;4.40;2.47;;;15.50;71.70;;;;;;10491374;28;20021;-59
2022/04/26 15:00:24;;;;;;;3.42;2.50;;;15.70;70.60;;;;;;10491201;28;20036;-58
2022/04/26 15:05:26;;;;;;;3.58;2.30;;;15.60;70.10;;;;;;10490921;28;20068;-58
2022/04/26 15:10:27;;;;;;;4.32;2.10;;;16.10;68.90;;;;;;10489178;28;20143;-59
2022/04/26 15:20:56;;;;;;;6.07;3.00;;;15.90;68.30;;;;;;10488432;28;20565;-59
2022/04/26 15:25:57;;;;;;;4.70;2.60;;;16.10;67.50;;;;;;10490119;28;20455;-59
2022/04/26 15:30:58;;;;;;;3.72;2.35;;;16.20;66.60;;;;;;10484541;28;20028;-60
2022/04/26 15:35:59;;;;;;;4.30;2.40;;;16.30;66.00;;;;;;10490076;28;20023;-59
2022/04/26 15:41:05;;;;;;;5.40;2.65;;;16.00;66.60;;;;;;10489034;28;20037;-59
2022/04/26 15:46:09;;;;;;;3.50;1.98;;;16.00;66.70;;;;;;10488970;28;20036;-60
2022/04/26 15:51:09;;;;;;;3.80;2.33;;;15.60;66.60;;;;;;10489483;28;20021;-58
2022/04/26 15:56:11;;;;;;;5.00;2.38;;;15.50;67.20;;;;;;10488850;28;20063;-59
2022/04/26 16:01:12;;;;;;;3.63;2.25;;;15.20;67.00;;;;;;10486602;28;20045;-59
2022/04/26 16:06:13;;;;;;;4.38;2.38;;;14.90;67.70;;;;;;10486226;28;20033;-58
2022/04/26 16:21:53;;;;;;;4.22;2.50;;;14.30;68.50;;;;;;10487007;28;20416;-57
2022/04/26 16:26:55;;;;;;;6.82;2.28;;;14.30;68.50;;;;;;10488153;28;20032;-58
2022/04/26 16:31:56;;;;;;;5.70;2.42;;;14.10;68.10;;;;;;10487992;28;20028;-58
2022/04/26 16:36:57;;;;;;;3.40;2.30;;;14.00;68.10;;;;;;10488994;28;20028;-58
2022/04/26 16:41:58;;;;;;;3.45;2.20;;;13.90;68.30;;;;;;10487383;28;20032;-57
2022/04/26 16:46:59;;;;;;;5.53;3.05;;;13.80;68.30;;;;;;10484342;28;20025;-57
2022/04/26 16:51:59;;;;;;;7.57;3.42;;;13.70;68.40;;;;;;10485039;28;20633;-58
2022/04/26 16:57:01;;;;;;;3.97;2.72;;;13.60;68.50;;;;;;10484223;28;20033;-56
2022/04/26 17:02:02;;;;;;;4.38;3.00;;;13.50;68.50;;;;;;10486956;28;20506;-58
2022/04/26 17:07:03;;;;;;;3.53;2.25;;;13.50;68.30;;;;;;10485352;28;20155;-58
2022/04/26 17:12:04;;;;;;;6.22;2.75;;;13.30;68.20;;;;;;10486163;28;20127;-60
2022/04/26 17:17:05;;;;;;;5.82;2.53;;;13.30;68.20;;;;;;10485708;28;20017;-57
2022/04/26 17:22:06;;;;;;;5.15;2.78;;;13.20;68.40;;;;;;10483542;28;20040;-62
2022/04/26 17:27:07;;;;;;;4.45;2.70;;;13.10;68.50;;;;;;10485358;28;20032;-60
2022/04/26 17:32:14;;;;;;;5.75;3.08;;;13.10;68.70;;;;;;10485661;28;20119;-59
2022/04/26 17:37:14;;;;;;;5.25;3.63;;;13.00;68.80;;;;;;10487662;28;20036;-59
2022/04/26 17:42:16;;;;;;;4.97;2.53;;;12.90;69.30;;;;;;10485202;28;20047;-59
2022/04/26 17:47:17;;;;;;;6.05;2.63;;;12.70;69.60;;;;;;10484901;28;20028;-58
2022/04/26 17:52:18;;;;;;;6.55;2.70;;;12.60;70.00;;;;;;10485875;28;20480;-58
2022/04/26 17:57:18;;;;;;;6.28;2.65;;;12.60;70.10;;;;;;10485833;28;20417;-58
2022/04/26 18:02:19;;;;;;;3.30;2.22;;;12.50;70.40;;;;;;10470406;28;20052;-64
2022/04/26 18:07:20;;;;;;;5.20;2.67;;;12.60;70.90;;;;;;10476671;28;20052;-62
2022/04/26 18:12:21;;;;;;;5.43;2.55;;;12.90;70.80;;;;;;10486105;28;20422;-60
2022/04/26 18:17:22;;;;;;;4.20;2.50;;;13.30;70.70;;;;;;10492098;28;20038;-60
2022/04/26 18:22:23;;;;;;;4.53;2.30;;;13.60;70.80;;;;;;10492315;28;20521;-60
2022/04/26 18:27:24;;;;;;;6.28;2.55;;;13.70;70.80;;;;;;10492424;28;20032;-59
2022/04/26 18:32:25;;;;;;;6.03;2.75;;;13.90;71.00;;;;;;10492153;28;20028;-63
2022/04/26 18:37:25;;;;;;;3.50;2.35;;;14.00;71.10;;;;;;10491434;28;20024;-58
2022/04/26 18:42:26;;;;;;;5.13;2.40;;;14.10;71.40;;;;;;10491375;28;20044;-64
2022/04/26 18:47:29;;;;;;;7.60;2.47;;;14.20;71.60;;;;;;10491587;28;20032;-64
2022/04/26 18:52:30;;;;;;;3.97;2.40;;;14.20;71.90;;;;;;10490492;28;20025;-64
2022/04/26 18:57:31;;;;;;;5.40;2.10;;;14.20;72.00;;;;;;10491650;28;20455;-60
2022/04/26 19:02:32;;;;;;;3.90;2.10;;;14.30;72.30;;;;;;10476289;28;20051;-64
2022/04/26 19:07:32;;;;;;;3.15;2.15;;;14.20;72.50;;;;;;10460067;28;20049;-62
2022/04/26 19:12:33;;;;;;;5.43;2.50;;;14.30;72.60;;;;;;10469817;28;20032;-58
2022/04/26 19:17:34;;;;;;;4.75;2.20;;;14.30;73.40;;;;;;10459564;28;20028;-62
2022/04/26 19:22:35;;;;;;;6.43;2.67;;;14.30;73.00;;;;;;10462452;28;20525;-64
2022/04/26 19:27:35;;;;;;;4.95;2.65;;;14.20;73.00;;;;;;10463352;28;20021;-59
2022/04/26 19:32:36;;;;;;;4.00;2.20;;;14.20;73.20;;;;;;10465460;28;20490;-61
2022/04/26 19:37:37;;;;;;;5.88;2.45;;;14.20;73.30;;;;;;10465245;28;20051;-56
2022/04/26 19:42:38;;;;;;;2.95;2.38;;;14.20;73.40;;;;;;10460405;28;20487;-62
2022/04/26 19:47:38;;;;;;;3.70;2.28;;;14.20;73.50;;;;;;10461399;28;20048;-61
2022/04/26 19:52:39;;;;;;;3.33;2.28;;;14.10;73.50;;;;;;10463118;28;20052;-63
2022/04/26 19:57:42;;;;;;;4.13;2.17;;;14.10;73.60;;;;;;10458503;28;20029;-60
2022/04/26 20:02:42;;;;;;;5.70;2.70;;;14.10;73.60;;;;;;10463439;28;20049;-57
2022/04/26 20:07:43;;;;;;;4.60;2.58;;;14.00;73.50;;;;;;10461912;28;20052;-62
2022/04/26 20:12:44;;;;;;;4.63;2.33;;;14.10;74.20;;;;;;10469719;28;20051;-64
2022/04/26 20:17:45;;;;;;;3.08;2.28;;;14.00;73.50;;;;;;10470065;28;20033;-62
2022/04/26 20:22:46;;;;;;;6.75;2.47;;;14.00;73.40;;;;;;10476210;28;20067;-64
2022/04/26 20:33:06;;;;;;;5.88;2.50;;;13.90;73.30;;;;;;10459314;28;20020;-59
2022/04/26 20:38:08;;;;;;;3.35;2.30;;;13.90;73.30;;;;;;10464194;28;20550;-64
2022/04/26 20:43:09;;;;;;;3.55;2.35;;;13.90;73.30;;;;;;10453673;28;20040;-62
2022/04/26 20:48:10;;;;;;;2.85;2.00;;;13.80;73.20;;;;;;10459844;28;20021;-61
2022/04/26 20:53:11;;;;;;;4.10;2.00;;;13.80;73.20;;;;;;10454497;28;20029;-58
2022/04/26 20:58:11;;;;;;;3.53;2.10;;;13.80;73.20;;;;;;10458241;28;20064;-63
2022/04/26 21:03:12;;;;;;;3.97;2.15;;;13.70;73.10;;;;;;10452696;28;20029;-64
2022/04/26 21:08:13;;;;;;;4.10;2.40;;;13.80;73.10;;;;;;10459471;28;20102;-60
2022/04/26 21:13:23;;;;;;;5.28;2.28;;;13.70;73.70;;;;;;10460825;28;20485;-62
2022/04/26 21:18:24;;;;;;;3.58;2.08;;;13.70;73.10;;;;;;10454224;28;20064;-61
2022/04/26 21:23:26;;;;;;;5.97;2.20;;;13.60;73.10;;;;;;10463905;28;20036;-63
2022/04/26 21:28:27;;;;;;;3.22;2.50;;;13.60;73.10;;;;;;10462269;28;20071;-61
2022/04/26 21:33:27;;;;;;;4.72;2.40;;;13.60;73.10;;;;;;10482771;28;20082;-62
2022/04/26 21:38:28;;;;;;;3.50;2.28;;;13.50;73.10;;;;;;10481504;28;20078;-63
2022/04/26 21:43:32;;;;;;;6.18;2.55;;;13.50;73.10;;;;;;10482579;28;20037;-59
2022/04/26 21:48:33;;;;;;;3.03;2.30;;;13.50;73.00;;;;;;10461874;28;20040;-58
2022/04/26 21:53:34;;;;;;;5.80;2.42;;;13.50;73.10;;;;;;10469444;28;21191;-58
2022/04/26 21:58:35;;;;;;;4.68;2.38;;;13.40;73.10;;;;;;10457899;28;20021;-58
2022/04/26 22:03:36;;;;;;;5.28;2.60;;;13.40;73.10;;;;;;10463271;28;20033;-59
2022/04/26 22:08:37;;;;;;;3.08;2.35;;;13.40;73.20;;;;;;10486726;28;20440;-59
2022/04/26 22:13:38;;;;;;;2.88;2.50;;;13.30;73.20;;;;;;10492911;28;20077;-59
2022/04/26 22:18:38;;;;;;;5.53;2.42;;;13.30;73.20;;;;;;10493301;28;20029;-58
2022/04/26 22:23:39;;;;;;;4.07;2.50;;;13.20;73.20;;;;;;10489733;28;20044;-58
2022/04/26 22:28:40;;;;;;;3.20;2.20;;;13.20;73.30;;;;;;10493513;28;20027;-57
2022/04/26 22:33:41;;;;;;;4.70;2.40;;;13.20;73.30;;;;;;10492946;28;20024;-59
2022/04/26 22:38:41;;;;;;;5.03;2.58;;;13.20;73.40;;;;;;10499305;28;20020;-59
2022/04/26 22:43:42;;;;;;;4.40;2.35;;;13.10;73.30;;;;;;10492493;28;20045;-56
2022/04/26 22:48:43;;;;;;;2.90;2.10;;;13.10;73.30;;;;;;10491893;28;20028;-59
2022/04/26 22:53:43;;;;;;;3.63;2.30;;;13.10;73.40;;;;;;10492154;28;20036;-60
2022/04/26 22:58:44;;;;;;;4.63;2.55;;;13.00;73.30;;;;;;10492254;28;20471;-57
2022/04/26 23:03:45;;;;;;;5.70;2.60;;;13.00;73.30;;;;;;10491785;28;20080;-59
2022/04/26 23:26:37;;;;;;;4.75;2.70;;;12.90;73.20;;;;;;10484084;28;20036;-59
2022/04/26 23:31:38;;;;;;;3.25;2.50;;;12.80;73.30;;;;;;10489828;28;20025;-57
2022/04/26 23:36:39;;;;;;;3.42;2.45;;;12.80;73.40;;;;;;10498093;28;20032;-58
2022/04/26 23:41:40;;;;;;;5.57;2.45;;;12.80;73.40;;;;;;10490164;28;20093;-58
2022/04/26 23:46:41;;;;;;;7.60;2.72;;;12.70;73.40;;;;;;10489013;28;20387;-59
2022/04/26 23:57:00;;;;;;;4.10;2.55;;;12.70;73.50;;;;;;10482178;28;20083;-59
